If you wish to contribute or participate in the discussions about articles you are invited to join SKYbrary as a registered user

 Actions

Muscat International Airport

From SKYbrary Wiki

OOMS
Airport
ICAO: OOMS – IATA: MCT
Summary
Name Muscat International Airport
Region Middle East
Territory Oman OM.gif
Location Seeb, Muscat
Serving Muscat
Coordinates 23° 35' 36.00" N, 58° 16' 54.00" E
Runways
Designator Length Width Surface ROPS
2/20 750 m2,460.63 ft
30 m98.425 ft
GRE no/no
8/26 3589 m11,774.934 ft
45 m147.638 ft
ASP no/no


METAR
Observation OOMS 161350Z 06005KT CAVOK 29/15 Q1009 NOSIG
Station Seeb, International Airport
Date/Time 16 April 2019 13:50:00
Wind direction 60°
Wind speed 05 kts
Lowest cloud amount clouds and visibility OK
Temperature 29°C
Dew point 15°C
Humidity 42%
QNH 1009 hPa
Weather condition n/a

International airport serving Muscat, the capital of Oman.

Climatology

Hot Desert Climate (Köppen climate classification BWh)

Maps

Terrain

Loading map...

Airport Layout

Loading map...


Accidents & Serious Incidents at or in vicinity of OOMS

None on SKYbrary